createdAt,value
2019-04-21T00:01:41.998Z,4.20
2019-04-21T00:04:19.833Z,4.47
2019-04-21T00:07:04.415Z,4.20
2019-04-21T00:09:40.115Z,4.30
2019-04-21T00:12:07.580Z,4.27
2019-04-21T00:14:31.659Z,4.10
2019-04-21T00:16:59.672Z,4.47
2019-04-21T00:19:36.894Z,4.10
2019-04-21T00:22:19.178Z,4.27
2019-04-21T00:24:48.815Z,3.93
2019-04-21T00:27:28.032Z,4.47
2019-04-21T00:30:04.543Z,4.30
2019-04-21T00:32:29.208Z,4.20
2019-04-21T00:34:56.595Z,4.20
2019-04-21T00:37:44.033Z,4.33
2019-04-21T00:40:19.215Z,4.60
2019-04-21T00:42:43.182Z,4.33
2019-04-21T00:45:13.064Z,4.03
2019-04-21T00:47:51.129Z,4.63
2019-04-21T00:50:25.619Z,4.00
2019-04-21T00:53:05.560Z,4.67
2019-04-21T00:56:01.586Z,4.00
2019-04-21T00:58:30.089Z,4.37
2019-04-21T01:00:58.578Z,4.33
2019-04-21T01:03:32.340Z,4.87
2019-04-21T01:06:04.193Z,4.30
2019-04-21T01:08:31.148Z,4.73
2019-04-21T01:11:10.820Z,4.27
2019-04-21T01:13:44.011Z,4.20
2019-04-21T01:16:14.126Z,4.53
2019-04-21T01:18:46.294Z,4.13
2019-04-21T01:20:55.286Z,4.20
2019-04-21T01:23:25.856Z,4.40
2019-04-21T01:26:13.745Z,4.47
2019-04-21T01:28:52.334Z,4.70
2019-04-21T01:31:17.112Z,4.40
2019-04-21T01:33:56.239Z,4.27
2019-04-21T01:36:28.925Z,4.87
2019-04-21T01:39:02.095Z,4.20
2019-04-21T01:41:37.305Z,4.73
2019-04-21T01:44:01.587Z,4.73
2019-04-21T01:46:33.569Z,4.40
2019-04-21T01:49:04.467Z,5.13
2019-04-21T01:51:57.850Z,4.83
2019-04-21T01:54:31.249Z,4.87
2019-04-21T01:57:09.962Z,4.50
2019-04-21T01:59:38.949Z,4.10
2019-04-21T02:02:19.224Z,4.37
2019-04-21T02:04:47.371Z,4.53
2019-04-21T02:07:21.893Z,4.70
2019-04-21T02:09:51.288Z,4.43
2019-04-21T02:12:25.491Z,4.23
2019-04-21T02:15:18.566Z,4.47
2019-04-21T02:17:28.029Z,5.10
2019-04-21T02:19:57.569Z,4.83
2019-04-21T02:22:46.166Z,4.63
2019-04-21T02:25:26.330Z,4.80
2019-04-21T02:27:44.738Z,4.30
2019-04-21T02:30:31.631Z,4.87
2019-04-21T02:33:05.926Z,4.30
2019-04-21T02:35:38.434Z,4.47
2019-04-21T02:38:08.951Z,4.40
2019-04-21T02:40:44.138Z,4.70
2019-04-21T02:43:12.025Z,5.17
2019-04-21T02:45:43.381Z,4.87
2019-04-21T02:48:19.306Z,4.87
2019-04-21T02:50:46.358Z,4.50
2019-04-21T02:53:35.336Z,4.60
2019-04-21T02:55:51.158Z,4.53
2019-04-21T02:58:52.407Z,4.63
2019-04-21T03:01:32.055Z,5.00
2019-04-21T03:04:10.439Z,4.47
2019-04-21T03:09:44.834Z,4.60
2019-04-21T03:22:24.966Z,5.03
2019-04-21T03:25:22.819Z,5.00
2019-04-21T03:30:10.968Z,4.60
2019-04-21T03:40:15.177Z,4.83
2019-04-21T03:42:47.743Z,4.30
2019-04-21T03:45:25.333Z,4.70
2019-04-21T03:47:57.106Z,4.40
2019-04-21T03:50:29.751Z,4.23
2019-04-21T04:06:25.984Z,4.73
2019-04-21T04:14:34.339Z,4.77
2019-04-21T04:17:11.968Z,4.90
2019-04-21T04:19:44.643Z,5.03
2019-04-21T04:27:20.801Z,5.47
2019-04-21T04:29:39.928Z,5.47
2019-04-21T04:32:14.598Z,5.00
2019-04-21T04:37:38.893Z,5.00
2019-04-21T04:40:26.828Z,5.07
2019-04-21T04:42:55.916Z,5.13
2019-04-21T04:45:32.357Z,4.30
2019-04-21T04:48:05.986Z,4.80
2019-04-21T04:50:43.354Z,4.93
2019-04-21T04:55:39.088Z,5.33
2019-04-21T04:58:13.165Z,4.90
2019-04-21T05:00:43.117Z,4.93
2019-04-21T05:03:26.305Z,4.97
2019-04-21T05:14:17.133Z,5.50
2019-04-21T05:24:04.758Z,4.40
2019-04-21T05:26:34.536Z,4.83
2019-04-21T05:29:01.760Z,5.00
2019-04-21T05:32:08.083Z,4.77
2019-04-21T05:34:26.850Z,4.60
2019-04-21T05:37:28.911Z,5.00
2019-04-21T05:40:02.536Z,4.43
2019-04-21T05:42:36.404Z,4.90
2019-04-21T05:45:18.839Z,4.40
2019-04-21T05:48:02.711Z,5.03
2019-04-21T05:50:27.509Z,4.47
2019-04-21T05:53:00.144Z,4.60
2019-04-21T05:58:08.627Z,4.40
2019-04-21T06:03:15.162Z,4.30
2019-04-21T06:08:27.085Z,4.00
2019-04-21T06:13:38.723Z,4.43
2019-04-21T06:16:03.572Z,4.43
2019-04-21T06:18:44.489Z,4.10
2019-04-21T06:21:05.552Z,4.17
2019-04-21T06:23:51.479Z,4.00
2019-04-21T06:26:26.981Z,3.90
2019-04-21T06:28:49.078Z,4.83
2019-04-21T06:31:33.782Z,4.33
2019-04-21T06:36:36.194Z,4.30
2019-04-21T06:39:17.933Z,3.87
2019-04-21T06:46:51.676Z,4.13
2019-04-21T06:49:06.726Z,3.83
2019-04-21T06:51:42.941Z,4.10
2019-04-21T06:54:16.073Z,3.87
2019-04-21T06:56:54.325Z,4.27
2019-04-21T06:59:19.068Z,4.23
2019-04-21T07:01:58.182Z,3.80
2019-04-21T07:04:27.600Z,4.07
2019-04-21T07:07:03.183Z,4.07
2019-04-21T07:09:31.396Z,4.73
2019-04-21T07:11:59.867Z,4.53
2019-04-21T07:14:40.242Z,4.70
2019-04-21T07:17:16.442Z,4.43
2019-04-21T07:19:52.402Z,4.30
2019-04-21T07:22:22.931Z,4.30
2019-04-21T07:24:48.186Z,4.30
2019-04-21T07:27:22.194Z,4.30
2019-04-21T07:29:54.711Z,4.43
2019-04-21T07:32:29.550Z,4.13
2019-04-21T07:34:58.898Z,4.50
2019-04-21T07:37:30.643Z,4.37
2019-04-21T07:40:03.711Z,4.53
2019-04-21T07:42:32.573Z,4.57
2019-04-21T07:44:57.686Z,4.33
2019-04-21T07:47:48.023Z,4.50
2019-04-21T07:50:22.657Z,4.30
2019-04-21T07:53:08.580Z,4.07
2019-04-21T07:58:03.245Z,4.30
2019-04-21T08:00:45.773Z,4.73
2019-04-21T08:03:09.301Z,4.90
2019-04-21T08:05:47.102Z,4.67
2019-04-21T08:08:11.380Z,4.50
2019-04-21T08:10:43.939Z,4.33
2019-04-21T08:13:31.634Z,4.13
2019-04-21T08:15:52.864Z,4.27
2019-04-21T08:18:28.642Z,4.30
2019-04-21T08:20:54.690Z,4.40
2019-04-21T08:23:31.490Z,3.73
2019-04-21T08:26:06.486Z,3.73
2019-04-21T08:28:42.637Z,3.87
2019-04-21T08:31:10.308Z,4.00
2019-04-21T08:33:51.406Z,4.27
2019-04-21T08:38:51.570Z,4.47
2019-04-21T08:41:21.326Z,4.10
2019-04-21T08:44:02.301Z,3.90
2019-04-21T08:46:25.828Z,4.00
2019-04-21T08:48:56.675Z,3.63
2019-04-21T08:54:01.399Z,3.90
2019-04-21T08:56:59.284Z,4.10
2019-04-21T08:59:51.813Z,4.40
2019-04-21T09:02:51.421Z,4.33
2019-04-21T09:05:18.956Z,3.90
2019-04-21T09:07:55.277Z,4.20
2019-04-21T09:10:23.105Z,3.90
2019-04-21T09:12:58.894Z,4.10
2019-04-21T09:15:31.143Z,4.20
2019-04-21T09:17:57.979Z,4.30
2019-04-21T09:20:43.968Z,4.27
2019-04-21T09:23:10.973Z,4.23
2019-04-21T09:28:14.624Z,4.47
2019-04-21T09:30:33.913Z,4.10
2019-04-21T09:33:01.757Z,4.30
2019-04-21T09:35:33.536Z,4.43
2019-04-21T09:38:16.269Z,4.50
2019-04-21T09:40:45.434Z,4.30
2019-04-21T09:43:13.314Z,4.50
2019-04-21T09:45:43.078Z,4.97
2019-04-21T09:48:18.718Z,4.90
2019-04-21T09:50:47.926Z,5.00
2019-04-21T09:53:26.905Z,5.30
2019-04-21T09:55:58.384Z,4.93
2019-04-21T09:58:32.941Z,5.47
2019-04-21T10:01:08.435Z,4.93
2019-04-21T10:03:38.281Z,5.27
2019-04-21T10:06:04.447Z,4.77
2019-04-21T10:08:36.299Z,5.17
2019-04-21T10:11:07.767Z,5.12
2019-04-21T10:13:39.818Z,5.37
2019-04-21T10:16:36.375Z,5.20
2019-04-21T10:19:07.326Z,4.90
2019-04-21T10:21:38.327Z,5.90
2019-04-21T10:24:10.383Z,5.87
2019-04-21T10:26:41.374Z,5.25
2019-04-21T10:29:19.772Z,5.80
2019-04-21T10:31:44.998Z,5.40
2019-04-21T10:34:17.030Z,5.90
2019-04-21T10:36:49.069Z,6.30
2019-04-21T10:39:19.922Z,6.20
2019-04-21T10:41:51.141Z,6.20
2019-04-21T10:44:23.148Z,6.17
2019-04-21T10:46:58.458Z,6.22
2019-04-21T10:49:30.776Z,5.95
2019-04-21T10:52:04.684Z,6.72
2019-04-21T10:54:58.458Z,5.97
2019-04-21T10:57:13.090Z,6.30
2019-04-21T10:59:47.854Z,7.10
2019-04-21T11:02:23.346Z,6.90
2019-04-21T11:04:54.516Z,6.28
2019-04-21T11:07:55.393Z,6.37
2019-04-21T11:10:16.103Z,6.28
2019-04-21T11:12:47.879Z,7.60
2019-04-21T11:15:21.156Z,6.70
2019-04-21T11:17:54.527Z,6.40
2019-04-21T11:20:24.974Z,6.75
2019-04-21T11:22:55.710Z,6.40
2019-04-21T11:25:26.510Z,6.17
2019-04-21T11:27:58.708Z,6.22
2019-04-21T11:30:29.786Z,5.67
2019-04-21T11:33:01.491Z,5.67
2019-04-21T11:35:32.990Z,6.47
2019-04-21T11:38:15.044Z,6.12
2019-04-21T11:40:39.972Z,6.17
2019-04-21T11:43:11.505Z,6.37
2019-04-21T11:45:44.416Z,5.60
2019-04-21T11:48:26.225Z,5.50
2019-04-21T11:50:57.340Z,5.50
2019-04-21T11:53:28.727Z,6.00
2019-04-21T11:56:00.788Z,5.60
2019-04-21T11:58:31.950Z,5.15
2019-04-21T12:01:05.463Z,4.97
2019-04-21T12:03:37.645Z,4.95
2019-04-21T12:06:09.163Z,5.53
2019-04-21T12:08:44.080Z,5.25
2019-04-21T12:11:15.723Z,5.40
2019-04-21T12:13:47.957Z,5.17
2019-04-21T12:16:19.326Z,5.65
2019-04-21T12:18:51.005Z,5.33
2019-04-21T12:21:23.368Z,5.10
2019-04-21T12:23:54.690Z,4.72
2019-04-21T12:26:26.385Z,5.25
2019-04-21T12:28:57.774Z,4.23
2019-04-21T12:31:47.654Z,4.35
2019-04-21T12:34:19.502Z,4.83
2019-04-21T12:36:52.820Z,4.60
2019-04-21T12:39:24.973Z,4.87
2019-04-21T12:41:56.401Z,4.37
2019-04-21T12:44:27.596Z,4.67
2019-04-21T12:46:58.421Z,4.70
2019-04-21T12:49:29.739Z,4.50
2019-04-21T12:52:01.872Z,4.63
2019-04-21T12:54:35.855Z,3.90
2019-04-21T12:57:07.649Z,4.30
2019-04-21T12:59:39.610Z,4.03
2019-04-21T13:02:12.107Z,4.30
2019-04-21T13:04:43.957Z,4.17
2019-04-21T13:07:15.368Z,4.10
2019-04-21T13:09:48.469Z,4.07
2019-04-21T13:12:20.326Z,4.03
2019-04-21T13:14:51.649Z,4.30
2019-04-21T13:17:23.617Z,4.00
2019-04-21T13:19:54.490Z,3.60
2019-04-21T13:22:27.968Z,3.93
2019-04-21T13:25:00.046Z,3.70
2019-04-21T13:27:31.263Z,3.63
2019-04-21T13:30:02.364Z,3.60
2019-04-21T13:32:35.272Z,3.37
2019-04-21T13:35:06.083Z,3.57
2019-04-21T13:37:37.384Z,3.33
2019-04-21T13:40:49.875Z,3.60
2019-04-21T13:43:07.880Z,3.80
2019-04-21T13:45:39.395Z,4.17
2019-04-21T13:48:14.674Z,4.10
2019-04-21T13:50:47.075Z,4.23
2019-04-21T13:53:21.136Z,4.53
2019-04-21T13:55:56.493Z,4.43
2019-04-21T13:58:28.558Z,4.40
2019-04-21T14:01:01.310Z,4.10
2019-04-21T14:03:33.404Z,4.57
2019-04-21T14:06:04.657Z,4.30
2019-04-21T14:08:51.216Z,4.30
2019-04-21T14:11:23.149Z,4.60
2019-04-21T14:13:54.478Z,4.03
2019-04-21T14:16:26.531Z,4.90
2019-04-21T14:18:58.943Z,4.97
2019-04-21T14:21:31.425Z,5.93
2019-04-21T14:24:02.394Z,5.47
2019-04-21T14:26:34.319Z,4.53
2019-04-21T14:29:05.835Z,3.93
2019-04-21T14:31:38.219Z,4.50
2019-04-21T14:34:10.069Z,3.70
2019-04-21T14:36:41.070Z,3.90
2019-04-21T14:39:12.622Z,3.63
2019-04-21T14:41:44.282Z,4.03
2019-04-21T14:44:15.411Z,3.73
2019-04-21T14:46:55.306Z,3.33
2019-04-21T14:49:37.274Z,3.60
2019-04-21T14:52:21.216Z,3.43
2019-04-21T14:55:06.853Z,3.83
2019-04-21T14:57:38.881Z,3.07
2019-04-21T15:00:13.408Z,3.50
2019-04-21T15:02:45.592Z,3.00
2019-04-21T15:05:17.952Z,3.27
2019-04-21T15:07:49.271Z,3.00
2019-04-21T15:10:25.226Z,3.20
2019-04-21T15:12:54.079Z,3.33
2019-04-21T15:15:25.624Z,3.33
2019-04-21T15:17:57.894Z,2.90
2019-04-21T15:20:28.812Z,3.17
2019-04-21T15:23:00.190Z,3.30
2019-04-21T15:25:32.333Z,2.80
2019-04-21T15:28:03.786Z,3.03
2019-04-21T15:30:34.880Z,2.90
2019-04-21T15:33:06.474Z,2.83
2019-04-21T15:35:39.070Z,2.93
2019-04-21T15:38:11.852Z,3.37
2019-04-21T15:40:50.565Z,3.17
2019-04-21T15:43:15.470Z,3.00
2019-04-21T15:45:50.488Z,3.33
2019-04-21T15:48:23.945Z,2.90
2019-04-21T15:50:55.058Z,2.50
2019-04-21T15:53:26.132Z,2.70
2019-04-21T15:56:04.769Z,4.20
2019-04-21T15:58:54.796Z,4.37
2019-04-21T16:01:30.597Z,4.10
2019-04-21T16:04:02.813Z,3.63
2019-04-21T16:06:35.281Z,3.23
2019-04-21T16:09:14.181Z,3.23
2019-04-21T16:11:42.096Z,3.03
2019-04-21T16:14:14.513Z,3.23
2019-04-21T16:16:47.430Z,2.67
2019-04-21T16:19:20.299Z,2.80
2019-04-21T16:21:52.522Z,2.90
2019-04-21T16:24:27.363Z,2.67
2019-04-21T16:27:01.083Z,2.60
2019-04-21T16:29:31.219Z,2.77
2019-04-21T16:32:02.224Z,2.50
2019-04-21T16:34:40.158Z,2.40
2019-04-21T16:37:05.588Z,2.80
2019-04-21T16:39:37.630Z,3.10
2019-04-21T16:42:10.062Z,2.90
2019-04-21T16:44:41.004Z,3.10
2019-04-21T16:47:11.794Z,2.60
2019-04-21T16:49:43.594Z,2.43
2019-04-21T16:52:20.794Z,2.50
2019-04-21T16:54:58.204Z,2.20
2019-04-21T16:57:39.836Z,2.43
2019-04-21T17:00:26.877Z,2.87
2019-04-21T17:02:50.394Z,2.40
2019-04-21T17:05:22.425Z,3.00
2019-04-21T17:07:55.535Z,3.33
2019-04-21T17:10:28.804Z,2.70
2019-04-21T17:13:03.823Z,2.93
2019-04-21T17:15:51.862Z,2.50
2019-04-21T17:18:23.071Z,2.30
2019-04-21T17:20:46.642Z,2.80
2019-04-21T17:23:13.388Z,3.07
2019-04-21T17:25:47.368Z,2.60
2019-04-21T17:28:17.518Z,2.67
2019-04-21T17:30:48.561Z,2.57
2019-04-21T17:33:25.682Z,2.40
2019-04-21T17:35:53.161Z,2.63
2019-04-21T17:38:25.865Z,2.57
2019-04-21T17:41:09.400Z,2.60
2019-04-21T17:43:29.860Z,2.40
2019-04-21T17:46:02.710Z,2.57
2019-04-21T17:48:34.654Z,2.70
2019-04-21T17:51:15.003Z,2.70
2019-04-21T17:53:53.776Z,2.53
2019-04-21T17:56:55.183Z,2.70
2019-04-21T17:59:35.894Z,2.50
2019-04-21T18:01:53.378Z,2.60
2019-04-21T18:04:28.500Z,2.40
2019-04-21T18:07:27.434Z,2.50
2019-04-21T18:12:31.863Z,2.70
2019-04-21T18:14:59.212Z,3.03
2019-04-21T18:17:20.958Z,2.90
2019-04-21T18:19:55.109Z,2.87
2019-04-21T18:22:46.888Z,2.50
2019-04-21T18:25:34.968Z,2.70
2019-04-21T18:27:52.388Z,2.80
2019-04-21T18:30:48.551Z,2.60
2019-04-21T18:33:25.382Z,2.83
2019-04-21T18:36:14.416Z,2.70
2019-04-21T18:39:12.594Z,2.90
2019-04-21T18:41:29.998Z,2.77
2019-04-21T18:44:41.811Z,2.77
2019-04-21T18:47:07.324Z,3.07
2019-04-21T18:49:24.955Z,2.83
2019-04-21T18:52:07.134Z,2.63
2019-04-21T18:54:53.900Z,2.60
2019-04-21T18:57:13.691Z,3.20
2019-04-21T18:59:40.272Z,2.80
2019-04-21T19:02:13.514Z,3.00
2019-04-21T19:04:43.105Z,3.17
2019-04-21T19:07:27.550Z,3.00
2019-04-21T19:13:08.047Z,3.20
2019-04-21T19:15:04.808Z,3.07
2019-04-21T19:18:14.911Z,3.07
2019-04-21T19:22:47.677Z,2.90
2019-04-21T19:25:22.698Z,3.37
2019-04-21T19:27:55.099Z,3.07
2019-04-21T19:30:36.810Z,3.07
2019-04-21T19:32:57.978Z,2.87
2019-04-21T19:35:15.162Z,3.10
2019-04-21T19:37:56.442Z,3.30
2019-04-21T19:40:37.014Z,3.27
2019-04-21T19:43:00.925Z,3.07
2019-04-21T19:45:37.076Z,3.10
2019-04-21T19:48:15.363Z,3.40
2019-04-21T19:50:47.104Z,3.00
2019-04-21T19:53:19.860Z,3.33
2019-04-21T19:55:34.001Z,3.13
2019-04-21T19:58:05.230Z,3.53
2019-04-21T20:00:36.694Z,3.37
2019-04-21T20:03:08.421Z,2.83
2019-04-21T20:05:47.605Z,3.40
2019-04-21T20:08:29.141Z,3.50
2019-04-21T20:11:04.057Z,2.87
2019-04-21T20:13:48.919Z,3.43
2019-04-21T20:16:06.908Z,3.27
2019-04-21T20:18:32.000Z,3.40
2019-04-21T20:20:56.050Z,3.30
2019-04-21T20:23:31.859Z,3.00
2019-04-21T20:26:02.653Z,2.97
2019-04-21T20:28:48.042Z,3.17
2019-04-21T20:31:24.986Z,3.30
2019-04-21T20:33:59.959Z,3.17
2019-04-21T20:36:26.183Z,3.53
2019-04-21T20:38:51.634Z,3.63
2019-04-21T20:41:27.318Z,3.77
2019-04-21T20:44:09.886Z,3.27
2019-04-21T20:46:40.910Z,3.60
2019-04-21T20:49:09.729Z,3.10
2019-04-21T20:51:45.196Z,3.13
2019-04-21T20:54:17.623Z,3.40
2019-04-21T20:56:49.693Z,3.40
2019-04-21T20:59:14.739Z,3.67
2019-04-21T21:01:50.554Z,3.30
2019-04-21T21:04:19.148Z,3.57
2019-04-21T21:07:01.607Z,3.60
2019-04-21T21:09:29.179Z,3.53
2019-04-21T21:12:16.008Z,3.23
2019-04-21T21:14:36.311Z,3.57
2019-04-21T21:17:22.156Z,3.40
2019-04-21T21:19:45.725Z,3.50
2019-04-21T21:22:13.211Z,3.60
2019-04-21T21:24:47.430Z,3.37
2019-04-21T21:27:19.661Z,3.70
2019-04-21T21:29:49.947Z,3.13
2019-04-21T21:32:27.414Z,3.70
2019-04-21T21:34:56.880Z,3.37
2019-04-21T21:37:36.831Z,3.90
2019-04-21T21:40:04.124Z,3.37
2019-04-21T21:42:23.084Z,3.40
2019-04-21T21:44:58.529Z,3.67
2019-04-21T21:47:41.599Z,3.73
2019-04-21T21:50:07.254Z,3.43
2019-04-21T21:52:39.911Z,3.30
2019-04-21T21:55:01.480Z,3.70
2019-04-21T21:57:40.533Z,3.43
2019-04-21T22:00:12.329Z,3.77
2019-04-21T22:02:50.730Z,3.27
2019-04-21T22:05:23.648Z,3.60
2019-04-21T22:07:52.186Z,3.53
2019-04-21T22:10:23.197Z,3.60
2019-04-21T22:13:02.500Z,3.60
2019-04-21T22:15:30.326Z,4.20
2019-04-21T22:18:16.832Z,3.40
2019-04-21T22:20:47.616Z,3.63
2019-04-21T22:23:12.896Z,3.97
2019-04-21T22:25:41.864Z,3.73
2019-04-21T22:28:11.674Z,3.50
2019-04-21T22:30:46.428Z,3.97
2019-04-21T22:33:18.119Z,3.70
2019-04-21T22:35:54.236Z,3.30
2019-04-21T22:38:38.280Z,3.73
2019-04-21T22:41:08.856Z,3.60
2019-04-21T22:43:32.456Z,3.67
2019-04-21T22:45:59.032Z,3.60
2019-04-21T22:48:30.716Z,3.53
2019-04-21T22:51:02.963Z,3.77
2019-04-21T22:53:39.959Z,3.50
2019-04-21T22:56:14.853Z,3.90
2019-04-21T22:58:42.554Z,3.43
2019-04-21T23:01:13.052Z,4.13
2019-04-21T23:03:50.253Z,3.73
2019-04-21T23:06:21.374Z,3.43
2019-04-21T23:08:49.856Z,3.53
2019-04-21T23:11:21.564Z,3.67
2019-04-21T23:14:02.022Z,3.50
2019-04-21T23:16:31.077Z,3.87
2019-04-21T23:19:17.011Z,3.80
2019-04-21T23:21:49.740Z,4.03
2019-04-21T23:24:26.194Z,3.77
2019-04-21T23:26:48.739Z,3.57
2019-04-21T23:29:30.723Z,3.70
2019-04-21T23:31:58.126Z,3.90
2019-04-21T23:34:19.653Z,3.43
2019-04-21T23:36:53.080Z,3.70
2019-04-21T23:39:23.733Z,3.70
2019-04-21T23:41:52.887Z,3.37
2019-04-21T23:44:23.730Z,4.17
2019-04-21T23:46:57.536Z,4.07
2019-04-21T23:49:35.328Z,3.77
2019-04-21T23:52:04.691Z,4.03
2019-04-21T23:54:31.783Z,3.80
2019-04-21T23:57:11.289Z,3.60
2019-04-21T23:59:42.394Z,3.90
